createdAt,value
2018-04-13T07:29:06.627Z,12.63
2018-04-13T07:31:34.579Z,12.63
2018-04-13T07:34:02.698Z,11.97
2018-04-13T07:36:31.503Z,12.67
2018-04-13T07:38:59.489Z,17.03
2018-04-13T07:41:27.386Z,13.33
2018-04-13T07:43:55.432Z,13.97
2018-04-13T07:46:23.342Z,14.53
2018-04-13T07:48:51.211Z,14.87
2018-04-13T07:51:19.062Z,14.80
2018-04-13T07:53:46.965Z,12.73
2018-04-13T07:56:15.504Z,14.27
2018-04-13T07:58:43.390Z,11.53
2018-04-13T08:01:11.220Z,12.40
2018-04-13T08:03:39.054Z,13.03
2018-04-13T08:06:06.897Z,15.30
2018-04-13T08:08:35.565Z,15.37
2018-04-13T08:11:03.419Z,17.83
2018-04-13T08:13:31.308Z,15.67
2018-04-13T08:16:00.025Z,16.97
2018-04-13T08:18:27.783Z,17.50
2018-04-13T08:20:55.582Z,16.70
2018-04-13T08:23:23.516Z,17.95
2018-04-13T08:25:52.179Z,22.73
2018-04-13T08:28:20.039Z,17.10
2018-04-13T08:30:48.618Z,18.30
2018-04-13T08:33:16.441Z,16.20
2018-04-13T08:35:44.512Z,20.70
2018-04-13T08:38:12.370Z,16.90
2018-04-13T08:40:40.152Z,18.27
2018-04-13T08:43:07.929Z,16.37
2018-04-13T08:45:35.862Z,15.03
2018-04-13T08:48:03.721Z,14.97
2018-04-13T08:50:31.603Z,17.37
2018-04-13T08:52:59.472Z,15.32
2018-04-13T08:55:27.278Z,13.17
2018-04-13T08:57:55.085Z,15.10
2018-04-13T09:00:22.997Z,17.90
2018-04-13T09:02:51.743Z,14.30
2018-04-13T09:05:19.638Z,16.67
2018-04-13T09:07:47.463Z,15.43
2018-04-13T09:10:15.305Z,19.73
2018-04-13T09:12:43.151Z,18.47
2018-04-13T09:15:10.977Z,18.07
2018-04-13T09:17:38.861Z,15.07
2018-04-13T09:20:06.788Z,16.50
2018-04-13T09:22:34.640Z,16.37
2018-04-13T09:25:02.568Z,16.43
2018-04-13T09:27:31.195Z,19.10
2018-04-13T09:29:59.123Z,17.67
2018-04-13T09:32:27.064Z,16.45
2018-04-13T09:34:54.863Z,16.47
2018-04-13T09:37:22.725Z,16.03
2018-04-13T09:39:50.602Z,16.30
2018-04-13T09:42:18.485Z,15.87
2018-04-13T09:44:46.346Z,15.93
2018-04-13T09:47:14.182Z,17.43
2018-04-13T09:49:42.050Z,17.70
2018-04-13T09:52:09.858Z,17.20
2018-04-13T09:54:37.738Z,18.37
2018-04-13T09:57:05.627Z,19.80
2018-04-13T09:59:34.175Z,17.90
2018-04-13T10:02:01.986Z,17.10
2018-04-13T10:04:29.838Z,18.30
2018-04-13T10:06:58.376Z,18.23
2018-04-13T10:09:26.195Z,17.37
2018-04-13T10:11:54.071Z,20.47
2018-04-13T10:14:21.929Z,19.40
2018-04-13T10:16:49.784Z,17.30
2018-04-13T10:19:18.396Z,19.03
2018-04-13T10:21:46.390Z,19.70
2018-04-13T10:24:14.312Z,17.53
2018-04-13T10:26:42.139Z,18.07
2018-04-13T10:29:10.040Z,18.57
2018-04-13T10:31:37.861Z,16.77
2018-04-13T10:34:05.736Z,18.13
2018-04-13T10:36:33.569Z,18.97
2018-04-13T10:39:01.460Z,18.00
2018-04-13T10:41:29.240Z,19.03
2018-04-13T10:43:57.799Z,19.03
2018-04-13T10:46:25.746Z,17.63
2018-04-13T10:48:53.463Z,17.57
2018-04-13T10:51:22.809Z,16.63
2018-04-13T10:53:50.721Z,18.37
2018-04-13T10:56:19.356Z,16.80
2018-04-13T10:58:47.090Z,17.80
2018-04-13T11:01:15.061Z,19.48
2018-04-13T11:03:42.845Z,22.23
2018-04-13T11:06:10.712Z,23.70
2018-04-13T11:08:38.547Z,19.53
2018-04-13T11:11:06.398Z,21.00
2018-04-13T11:13:35.137Z,19.47
2018-04-13T11:16:02.944Z,19.80
2018-04-13T11:18:31.496Z,24.07
2018-04-13T11:20:59.265Z,22.10
2018-04-13T11:23:27.264Z,20.80
2018-04-13T11:25:55.068Z,22.63
2018-04-13T11:28:22.777Z,20.33
2018-04-13T11:30:51.510Z,19.43
2018-04-13T11:33:19.319Z,19.37
2018-04-13T11:35:47.904Z,23.50
2018-04-13T11:38:16.530Z,18.97
2018-04-13T11:40:44.365Z,22.43
2018-04-13T11:43:12.196Z,20.37
2018-04-13T11:45:40.203Z,22.50
2018-04-13T11:48:09.123Z,18.83
2018-04-13T11:50:37.064Z,20.83
2018-04-13T11:53:04.931Z,19.57
2018-04-13T11:55:32.670Z,20.07
2018-04-13T11:58:01.327Z,18.80
2018-04-13T12:00:29.182Z,20.03
2018-04-13T12:02:56.979Z,17.17
2018-04-13T12:05:24.879Z,23.40
2018-04-13T12:07:52.793Z,19.15
2018-04-13T12:10:20.566Z,20.03
2018-04-13T12:12:48.547Z,17.83
2018-04-13T12:15:17.099Z,17.77
2018-04-13T12:17:45.003Z,17.23
2018-04-13T12:20:12.835Z,18.20
2018-04-13T12:22:40.751Z,18.90
2018-04-13T12:25:08.553Z,18.53
2018-04-13T12:27:36.365Z,19.17
2018-04-13T12:30:04.117Z,20.43
2018-04-13T12:32:32.750Z,18.53
2018-04-13T12:35:00.520Z,17.90
2018-04-13T12:37:28.296Z,20.77
2018-04-13T12:39:56.112Z,17.37
2018-04-13T12:42:23.904Z,19.30
2018-04-13T12:44:51.793Z,18.93
2018-04-13T12:47:19.698Z,22.47
2018-04-13T12:49:47.657Z,18.20
2018-04-13T12:52:16.314Z,18.73
2018-04-13T12:54:45.332Z,20.43
2018-04-13T12:57:12.988Z,17.87
2018-04-13T12:59:40.804Z,17.93
2018-04-13T13:02:08.634Z,17.77
2018-04-13T13:04:36.431Z,18.40
2018-04-13T13:07:04.236Z,19.37
2018-04-13T13:09:32.877Z,18.63
2018-04-13T13:12:00.670Z,19.17
2018-04-13T13:14:28.422Z,22.17
2018-04-13T13:16:56.327Z,19.37
2018-04-13T13:19:24.110Z,19.87
2018-04-13T13:21:51.958Z,20.97
2018-04-13T13:24:19.871Z,19.30
2018-04-13T13:26:47.667Z,19.33
2018-04-13T13:29:16.230Z,18.83
2018-04-13T13:31:44.158Z,18.67
2018-04-13T13:34:12.055Z,18.63
2018-04-13T13:36:39.899Z,19.43
2018-04-13T13:39:07.647Z,19.03
2018-04-13T13:41:35.539Z,19.50
2018-04-13T13:44:03.462Z,19.83
2018-04-13T13:46:31.352Z,20.07
2018-04-13T13:48:59.249Z,20.53
2018-04-13T13:51:27.076Z,18.70
2018-04-13T13:53:55.026Z,21.17
2018-04-13T13:56:22.830Z,20.00
2018-04-13T13:58:50.632Z,18.73
2018-04-13T14:01:19.297Z,18.63
2018-04-13T14:03:47.071Z,19.83
2018-04-13T14:06:15.668Z,18.57
2018-04-13T14:08:44.333Z,19.80
2018-04-13T14:11:12.113Z,18.03
2018-04-13T14:13:39.880Z,21.23
2018-04-13T14:16:07.683Z,18.47
2018-04-13T14:18:35.478Z,19.17
2018-04-13T14:21:03.268Z,22.30
2018-04-13T14:23:31.197Z,20.43
2018-04-13T14:25:58.993Z,19.07
2018-04-13T14:28:27.567Z,19.53
2018-04-13T14:30:56.247Z,23.10
2018-04-13T14:33:24.827Z,18.17
2018-04-13T14:35:52.595Z,18.80
2018-04-13T14:38:22.514Z,18.50
2018-04-13T14:40:50.347Z,21.47
2018-04-13T14:43:18.177Z,21.93
2018-04-13T14:45:47.011Z,18.00
2018-04-13T14:48:14.863Z,19.07
2018-04-13T14:50:42.742Z,18.23
2018-04-13T14:53:10.504Z,18.03
2018-04-13T14:55:38.294Z,17.30
2018-04-13T14:58:06.140Z,21.70
2018-04-13T15:00:34.859Z,20.20
2018-04-13T15:03:02.739Z,20.30
